»·PEaware :: N379CH KEMT-KSEE

N379CH :: KEMT-KSEE

FLIGHT INFORMATION

Flight Status: Arrived
Operator: Privately registered:
United States
More flights under this callsign
Pilot: Jason D. (24728)
Aircraft: CESSNA 414 CHANCELLOR
(C414)
More flights by this aircraft type
Origin: KEMT El Monte
United States
Destination: KSEE Gillespie
United States
More flights between these airports :: More routes between these airports
Route: PDZ V186 HAILE V66 MZB
File this flight plan on PilotEdge
Remarks: ONTP12 Tec Route
Altitude:
(Current/Filed)
9,000ft
Speed:
(Current/Filed)
185kts
Departed: 15-Sep-22 07:33 PM
Arrived: 15-Sep-22 08:08 PM
Distance/Time
Traveled:
92nm/0:34
Distance/Time
To Go:
Arrived

Flight Plot

Page will automatically refresh every two minutes.


Map Options




Map Legend


Flown Route
Filed Route
Departure Airport
Arrival Airport
Navaid (VOR, NDB)
Fix

Horizontal Profiles

Position Reports

Time Latitude Longitude Heading Altitude Ground
Speed
15-Sep-22 19:15 34.085366 -118.033138 19 295ft 0kts
15-Sep-22 19:15 34.085366 -118.033138 19 295ft 0kts
15-Sep-22 19:16 34.085366 -118.033138 19 295ft 0kts
15-Sep-22 19:18 34.085366 -118.033138 19 295ft 0kts
15-Sep-22 19:19 34.085366 -118.033138 19 295ft 0kts
15-Sep-22 19:20 34.085366 -118.033138 19 295ft 0kts
15-Sep-22 19:20 34.085366 -118.033138 19 295ft 0kts
15-Sep-22 19:21 34.085366 -118.033138 19 295ft 0kts
15-Sep-22 19:23 34.085366 -118.033138 19 295ft 0kts
15-Sep-22 19:24 34.085366 -118.033138 19 295ft 0kts
15-Sep-22 19:24 34.085366 -118.033138 19 295ft 0kts
15-Sep-22 19:25 34.085366 -118.033138 19 264ft 0kts
15-Sep-22 19:26 34.085366 -118.033138 19 264ft 0kts
15-Sep-22 19:27 34.085668 -118.033525 287 288ft 3kts
15-Sep-22 19:28 34.088506 -118.032804 24 286ft 17kts
15-Sep-22 19:29 34.090716 -118.031614 307 286ft 0kts
15-Sep-22 19:30 34.090716 -118.031614 307 286ft 0kts
15-Sep-22 19:31 34.090834 -118.031837 299 286ft 7kts
15-Sep-22 19:32 34.077583 -118.039666 206 795ft 99kts
15-Sep-22 19:33 34.057550 -118.032367 79 2683ft 113kts
15-Sep-22 19:34 34.063708 -117.995180 77 4550ft 113kts
15-Sep-22 19:35 34.062770 -117.956947 105 5997ft 121kts
15-Sep-22 19:36 34.048775 -117.911664 115 6458ft 189kts
15-Sep-22 19:37 34.025510 -117.849251 114 5919ft 201kts
15-Sep-22 19:38 34.005166 -117.790211 112 6030ft 188kts
15-Sep-22 19:39 33.985542 -117.731199 112 6025ft 190kts
15-Sep-22 19:40 33.965895 -117.672238 112 6018ft 189kts
15-Sep-22 19:41 33.946340 -117.613605 112 6020ft 188kts
15-Sep-22 19:42 33.926811 -117.555221 112 6012ft 188kts
15-Sep-22 19:43 33.894288 -117.510545 145 6515ft 168kts
15-Sep-22 19:44 33.858185 -117.479481 147 7709ft 159kts
15-Sep-22 19:45 33.820580 -117.447953 147 8656ft 169kts
15-Sep-22 19:46 33.779323 -117.413458 147 9025ft 191kts
15-Sep-22 19:47 33.734581 -117.376010 147 9003ft 199kts
15-Sep-22 19:48 33.688964 -117.337893 147 9007ft 200kts
15-Sep-22 19:49 33.643368 -117.299868 147 9002ft 199kts
15-Sep-22 19:50 33.597694 -117.261837 147 9006ft 199kts
15-Sep-22 19:51 33.552257 -117.224049 147 9012ft 199kts
15-Sep-22 19:52 33.506860 -117.186352 147 9025ft 196kts
15-Sep-22 19:53 33.458960 -117.158175 175 9022ft 192kts
15-Sep-22 19:54 33.405751 -117.146545 172 9017ft 194kts
15-Sep-22 19:55 33.352637 -117.135039 172 9010ft 194kts
15-Sep-22 19:56 33.299485 -117.123752 172 9014ft 193kts
15-Sep-22 19:57 33.244255 -117.109846 166 8037ft 209kts
15-Sep-22 19:58 33.188316 -117.091386 166 6890ft 208kts
15-Sep-22 19:59 33.132401 -117.072944 166 5764ft 208kts
15-Sep-22 20:00 33.077725 -117.054938 165 5011ft 198kts
15-Sep-22 20:01 33.025829 -117.037832 165 4822ft 193kts
15-Sep-22 20:02 32.973706 -117.019723 162 3866ft 194kts
15-Sep-22 20:03 32.925166 -117.001346 158 3069ft 173kts
15-Sep-22 20:04 32.883410 -116.980521 154 2188ft 148kts
15-Sep-22 20:05 32.850815 -116.961659 154 1565ft 113kts
15-Sep-22 20:06 32.825073 -116.953689 256 891ft 99kts
15-Sep-22 20:07 32.826425 -116.972954 183 371ft 5kts
15-Sep-22 20:08 32.825633 -116.973181 264 372ft 4kts
15-Sep-22 20:09 32.825536 -116.973752 188 372ft 0kts

Navigation Log

Ident Type
Flight plan parsing failed, navigation log unavailable